Time;durP1;ratioP1;P1;durP2;ratioP2;P2;SDS_P1;SDS_P2;PMS_P1;PMS_P2;Temp;Humidity;BMP_temperature;BMP_pressure;BME280_temperature;BME280_humidity;BME280_pressure;Samples;Min_cycle;Max_cycle;Signal;HPM_P1;HPM_P2
2023/10/03 00:00:24;;;;;;;21.27;11.35;;;;;;;15.82;100.00;100973.34;1253976;23;20043;-90
2023/10/03 00:00:56;;;;;;;29.45;12.88;;;;;;;15.83;100.00;100969.59;1249469;23;20023;-90
2023/10/03 00:01:28;;;;;;;24.90;12.75;;;;;;;15.88;100.00;100966.97;1251472;23;20015;-91
2023/10/03 00:02:01;;;;;;;23.85;10.48;;;;;;;15.85;100.00;100962.91;1261315;23;20041;-90
2023/10/03 00:02:33;;;;;;;29.25;11.40;;;;;;;15.85;100.00;100959.41;1254022;23;20015;-90
2023/10/03 00:03:07;;;;;;;23.90;11.18;;;;;;;15.91;100.00;100961.13;1256690;23;20015;-90
2023/10/03 00:03:40;;;;;;;25.35;11.60;;;;;;;15.91;100.00;100961.13;1244344;23;20024;-90
2023/10/03 00:04:12;;;;;;;21.30;11.25;;;;;;;15.87;100.00;100951.91;1250062;23;20019;-90
2023/10/03 00:04:44;;;;;;;23.98;11.82;;;;;;;15.84;100.00;100955.91;1255916;23;20022;-89
2023/10/03 00:05:19;;;;;;;19.02;10.63;;;;;;;15.82;100.00;100957.22;1252545;23;20031;-91
2023/10/03 00:05:51;;;;;;;24.17;11.88;;;;;;;15.76;100.00;100954.47;1260724;23;20077;-90
2023/10/03 00:06:23;;;;;;;26.02;12.70;;;;;;;15.80;100.00;100956.66;1257660;23;20383;-90
2023/10/03 00:06:54;;;;;;;24.80;11.57;;;;;;;15.74;100.00;100955.78;1255222;23;20026;-90
2023/10/03 00:07:26;;;;;;;27.23;11.70;;;;;;;15.76;100.00;100959.03;1250203;23;20152;-90
2023/10/03 00:08:00;;;;;;;23.65;11.57;;;;;;;15.68;100.00;100957.59;1254552;23;20026;-90
2023/10/03 00:08:31;;;;;;;20.23;10.95;;;;;;;15.58;100.00;100949.38;1256236;23;20025;-89
2023/10/03 00:09:05;;;;;;;27.08;12.43;;;;;;;15.61;100.00;100956.97;1255964;23;20419;-90
2023/10/03 00:09:37;;;;;;;28.08;12.35;;;;;;;15.70;100.00;100950.09;1263534;23;20021;-90
2023/10/03 00:10:09;;;;;;;26.55;11.55;;;;;;;15.64;100.00;100948.41;1249393;23;20026;-90
2023/10/03 00:10:41;;;;;;;24.05;12.93;;;;;;;15.68;100.00;100952.22;1255603;23;20453;-90
2023/10/03 00:11:17;;;;;;;28.02;12.02;;;;;;;15.70;100.00;100944.72;1254802;23;20015;-91
2023/10/03 00:11:49;;;;;;;28.15;11.48;;;;;;;15.67;100.00;100947.91;1248832;23;20019;-90
2023/10/03 00:12:21;;;;;;;31.30;12.18;;;;;;;15.67;100.00;100942.53;1251331;23;20018;-90
2023/10/03 00:12:53;;;;;;;23.85;12.30;;;;;;;15.71;100.00;100945.53;1245765;23;20016;-90
2023/10/03 00:13:25;;;;;;;24.95;12.10;;;;;;;15.69;100.00;100945.78;1249399;23;20091;-90
2023/10/03 00:13:57;;;;;;;20.00;12.10;;;;;;;15.61;100.00;100942.69;1251678;23;20011;-90
2023/10/03 00:14:28;;;;;;;29.08;12.10;;;;;;;15.75;100.00;100934.06;1249195;23;20027;-89
2023/10/03 00:15:01;;;;;;;26.92;12.25;;;;;;;15.76;100.00;100938.34;1255617;23;20180;-90
2023/10/03 00:15:33;;;;;;;21.80;11.52;;;;;;;15.73;100.00;100932.69;1255869;23;20022;-90
2023/10/03 00:16:04;;;;;;;23.30;11.80;;;;;;;15.71;100.00;100930.25;1257487;23;20025;-90
2023/10/03 00:16:36;;;;;;;23.50;12.13;;;;;;;15.70;100.00;100936.66;1254696;23;20097;-90
2023/10/03 00:17:08;;;;;;;25.85;12.50;;;;;;;15.67;100.00;100939.03;1257345;23;20015;-90
2023/10/03 00:17:42;;;;;;;32.55;10.85;;;;;;;15.59;100.00;100932.19;1262270;23;20383;-91
2023/10/03 00:18:15;;;;;;;27.92;12.65;;;;;;;15.68;100.00;100930.75;1253467;23;20043;-91
2023/10/03 00:18:46;;;;;;;25.98;11.93;;;;;;;15.57;100.00;100925.41;1253450;23;20498;-91
2023/10/03 00:19:19;;;;;;;23.30;10.88;;;;;;;15.59;100.00;100929.50;1255893;23;20019;-89
2023/10/03 00:19:51;;;;;;;27.20;11.00;;;;;;;15.63;100.00;100927.19;1255776;23;20018;-91
2023/10/03 00:20:22;;;;;;;26.05;12.93;;;;;;;15.66;100.00;100924.00;1255419;23;20015;-90
2023/10/03 00:20:54;;;;;;;25.92;12.55;;;;;;;15.66;100.00;100924.00;1254800;23;20101;-90
2023/10/03 00:21:27;;;;;;;24.10;11.43;;;;;;;15.71;100.00;100919.50;1248642;23;20016;-90
2023/10/03 00:21:58;;;;;;;33.70;13.57;;;;;;;15.71;100.00;100926.75;1255733;23;20026;-91
2023/10/03 00:22:30;;;;;;;29.15;10.90;;;;;;;15.68;100.00;100919.19;1251564;23;20015;-90
2023/10/03 00:23:02;;;;;;;27.88;11.52;;;;;;;15.67;100.00;100914.88;1250312;23;20432;-90
2023/10/03 00:23:34;;;;;;;28.55;12.00;;;;;;;15.71;100.00;100922.19;1257044;23;20015;-90
2023/10/03 00:24:06;;;;;;;26.58;11.82;;;;;;;15.67;100.00;100918.38;1255042;23;20023;-91
2023/10/03 00:24:38;;;;;;;28.85;12.18;;;;;;;15.66;100.00;100922.13;1255188;23;20033;-90
2023/10/03 00:25:23;;;;;;;26.90;12.25;;;;;;;15.60;100.00;100923.09;1257751;23;20061;-91
2023/10/03 00:25:59;;;;;;;27.23;12.90;;;;;;;15.64;100.00;100918.88;1258138;23;20076;-89
2023/10/03 00:26:31;;;;;;;21.42;11.10;;;;;;;15.44;100.00;100915.84;1252329;23;20021;-90
2023/10/03 00:27:05;;;;;;;22.90;11.45;;;;;;;15.55;100.00;100916.81;1257047;23;20026;-90
2023/10/03 00:27:37;;;;;;;25.92;13.40;;;;;;;15.46;100.00;100919.09;1259549;23;20015;-90
2023/10/03 00:28:10;;;;;;;22.20;10.73;;;;;;;15.49;100.00;100918.59;1253480;23;20026;-91
2023/10/03 00:28:44;;;;;;;29.13;12.48;;;;;;;15.48;100.00;100911.63;1255247;23;20042;-91
2023/10/03 00:29:23;;;;;;;23.13;11.75;;;;;;;15.42;100.00;100916.09;1253705;23;20019;-90
2023/10/03 00:29:55;;;;;;;26.10;11.25;;;;;;;15.37;100.00;100912.53;1260300;23;20018;-91
2023/10/03 00:30:28;;;;;;;20.85;10.88;;;;;;;15.24;100.00;100920.91;1254055;23;20022;-90
2023/10/03 00:31:00;;;;;;;28.17;11.85;;;;;;;15.21;100.00;100924.09;1253385;23;20026;-90
2023/10/03 00:31:33;;;;;;;23.15;11.05;;;;;;;15.22;100.00;100921.16;1247325;23;20019;-90
2023/10/03 00:32:06;;;;;;;22.15;11.30;;;;;;;15.23;100.00;100916.59;1248500;23;20094;-90
2023/10/03 00:32:40;;;;;;;33.83;12.75;;;;;;;15.45;100.00;100914.78;1255259;23;20419;-90
2023/10/03 00:33:17;;;;;;;28.42;12.48;;;;;;;15.56;100.00;100913.88;1261339;23;20025;-90
2023/10/03 00:33:49;;;;;;;24.92;11.35;;;;;;;15.63;100.00;100911.88;1255460;23;20153;-90
2023/10/03 00:34:23;;;;;;;25.77;13.07;;;;;;;15.62;100.00;100907.56;1255261;23;20019;-90
2023/10/03 00:34:56;;;;;;;24.88;11.90;;;;;;;15.67;100.00;100907.63;1249908;23;20051;-90
2023/10/03 00:35:28;;;;;;;26.48;12.75;;;;;;;15.66;100.00;100915.94;1261402;23;20018;-90
2023/10/03 00:35:59;;;;;;;30.80;14.05;;;;;;;15.61;100.00;100916.69;1254496;23;20085;-90
2023/10/03 00:36:31;;;;;;;30.13;15.32;;;;;;;15.69;100.00;100912.75;1248089;23;20020;-91
2023/10/03 00:37:03;;;;;;;27.33;13.57;;;;;;;15.67;100.00;100912.19;1248850;23;20023;-91
2023/10/03 00:37:37;;;;;;;25.45;12.88;;;;;;;15.68;100.00;100913.81;1256154;23;20075;-91
2023/10/03 00:38:13;;;;;;;26.33;12.05;;;;;;;15.64;100.00;100910.81;1243258;23;20031;-91
2023/10/03 00:38:46;;;;;;;26.40;13.07;;;;;;;15.81;100.00;100915.31;1248863;23;20023;-91
2023/10/03 00:39:17;;;;;;;36.00;13.95;;;;;;;15.73;100.00;100912.00;1260759;23;20025;-90
2023/10/03 00:39:49;;;;;;;26.13;12.88;;;;;;;15.73;100.00;100911.19;1258981;23;20010;-90
2023/10/03 00:40:55;;;;;;;26.10;12.35;;;;;;;15.79;100.00;100914.75;1260419;23;20022;-90
2023/10/03 00:41:29;;;;;;;31.65;12.98;;;;;;;15.75;100.00;100907.19;1265727;23;20029;-90
2023/10/03 00:42:03;;;;;;;31.98;13.25;;;;;;;15.79;100.00;100904.81;1260191;23;20018;-90
2023/10/03 00:42:36;;;;;;;28.27;12.25;;;;;;;15.76;100.00;100903.44;1254020;23;20023;-91
2023/10/03 00:43:08;;;;;;;18.90;10.75;;;;;;;15.67;100.00;100896.88;1249140;23;20019;-90
2023/10/03 00:43:53;;;;;;;26.58;13.13;;;;;;;15.76;100.00;100899.94;1251810;23;20119;-90
2023/10/03 00:44:25;;;;;;;31.90;12.73;;;;;;;15.76;100.00;100892.69;1251101;23;20023;-90
2023/10/03 00:44:57;;;;;;;27.83;10.52;;;;;;;15.78;100.00;100895.13;1254686;23;20465;-90
2023/10/03 00:45:30;;;;;;;29.88;13.20;;;;;;;15.81;100.00;100885.75;1261446;23;20016;-91
2023/10/03 00:46:01;;;;;;;23.83;11.90;;;;;;;15.83;100.00;100883.63;1261149;23;20109;-90
2023/10/03 00:46:33;;;;;;;28.35;13.75;;;;;;;15.80;100.00;100884.13;1253581;23;20057;-90
2023/10/03 00:47:07;;;;;;;38.28;12.68;;;;;;;15.81;100.00;100881.22;1253488;23;20498;-90
2023/10/03 00:47:38;;;;;;;21.83;11.55;;;;;;;15.75;100.00;100882.22;1257690;23;20022;-89
2023/10/03 00:48:11;;;;;;;18.45;11.32;;;;;;;15.77;100.00;100886.28;1254470;23;20026;-90
2023/10/03 00:48:47;;;;;;;25.30;12.52;;;;;;;15.81;100.00;100881.22;1253868;23;20109;-90
2023/10/03 00:49:18;;;;;;;26.73;12.93;;;;;;;15.77;100.00;100874.72;1256387;23;20018;-89
2023/10/03 00:49:50;;;;;;;30.58;11.70;;;;;;;15.71;100.00;100879.22;1255534;23;20019;-90
2023/10/03 00:50:25;;;;;;;28.70;12.27;;;;;;;15.76;100.00;100876.59;1254674;23;20019;-90
2023/10/03 00:50:57;;;;;;;41.35;12.50;;;;;;;15.80;100.00;100876.91;1255415;23;20026;-91
2023/10/03 00:51:31;;;;;;;27.90;14.93;;;;;;;15.85;100.00;100876.13;1254117;23;20026;-90
2023/10/03 00:52:05;;;;;;;33.53;12.77;;;;;;;15.85;100.00;100876.13;1243874;23;20075;-90
2023/10/03 00:52:37;;;;;;;25.98;12.82;;;;;;;15.85;100.00;100870.78;1249805;23;20039;-91
2023/10/03 00:53:09;;;;;;;31.77;12.43;;;;;;;15.88;100.00;100875.63;1255918;23;20034;-90
2023/10/03 00:53:41;;;;;;;30.48;12.70;;;;;;;15.89;100.00;100867.34;1260174;23;20110;-90
2023/10/03 00:54:13;;;;;;;28.00;12.35;;;;;;;15.93;100.00;100867.66;1253988;23;20018;-90
2023/10/03 00:54:46;;;;;;;25.80;11.95;;;;;;;15.90;100.00;100868.16;1260172;23;20022;-91
2023/10/03 00:55:18;;;;;;;28.88;11.70;;;;;;;15.85;100.00;100866.22;1255733;23;20031;-90
2023/10/03 00:55:50;;;;;;;29.58;13.30;;;;;;;15.84;100.00;100858.41;1250997;23;20453;-90
2023/10/03 00:56:22;;;;;;;26.23;12.63;;;;;;;15.84;100.00;100869.16;1250091;23;20027;-90
2023/10/03 00:56:54;;;;;;;25.55;11.60;;;;;;;15.87;100.00;100863.28;1243352;23;20160;-90
2023/10/03 00:57:26;;;;;;;30.27;12.85;;;;;;;15.81;100.00;100865.09;1254181;23;20019;-90
2023/10/03 00:58:18;;;;;;;25.08;10.82;;;;;;;15.83;100.00;100867.53;1256544;23;20022;-90
2023/10/03 00:58:51;;;;;;;25.55;11.07;;;;;;;15.79;100.00;100861.03;1255749;23;20078;-91
2023/10/03 00:59:23;;;;;;;27.13;11.98;;;;;;;15.92;100.00;100860.66;1251275;23;20328;-91
2023/10/03 00:59:58;;;;;;;28.42;13.00;;;;;;;15.85;100.00;100860.03;1261102;23;20025;-90
2023/10/03 01:00:31;;;;;;;22.42;11.07;;;;;;;15.89;100.00;100847.75;1261859;23;20170;-90
2023/10/03 01:01:03;;;;;;;24.25;12.45;;;;;;;15.96;100.00;100851.03;1256029;23;20026;-90
2023/10/03 01:01:36;;;;;;;28.70;13.40;;;;;;;15.96;100.00;100851.03;1255459;23;20030;-91
2023/10/03 01:02:08;;;;;;;26.98;13.25;;;;;;;15.92;100.00;100849.94;1247520;23;20027;-90
2023/10/03 01:02:47;;;;;;;26.50;13.02;;;;;;;16.04;100.00;100854.09;1249987;23;20026;-90
2023/10/03 01:03:27;;;;;;;27.95;11.95;;;;;;;15.98;100.00;100848.91;1252425;23;20012;-91
2023/10/03 01:04:01;;;;;;;30.63;14.13;;;;;;;15.97;100.00;100844.59;1249763;23;20081;-91
2023/10/03 01:04:35;;;;;;;27.38;12.38;;;;;;;16.00;100.00;100846.78;1251359;23;20043;-91
2023/10/03 01:05:08;;;;;;;25.33;11.90;;;;;;;15.99;100.00;100845.16;1253748;23;20624;-91
2023/10/03 01:05:43;;;;;;;21.85;11.55;;;;;;;15.98;100.00;100843.53;1249483;23;20102;-90
2023/10/03 01:06:15;;;;;;;34.80;13.40;;;;;;;15.99;100.00;100847.84;1254752;23;20018;-91
2023/10/03 01:06:50;;;;;;;21.77;11.25;;;;;;;15.88;100.00;100838.03;1252344;23;20094;-90
2023/10/03 01:07:23;;;;;;;30.02;12.10;;;;;;;15.79;100.00;100851.09;1248825;23;20019;-90
2023/10/03 01:07:55;;;;;;;29.98;12.02;;;;;;;15.82;100.00;100845.22;1262991;23;20037;-90
2023/10/03 01:08:29;;;;;;;24.55;13.20;;;;;;;15.85;100.00;100843.91;1268247;23;20014;-90
2023/10/03 01:09:01;;;;;;;25.48;11.93;;;;;;;15.92;100.00;100841.88;1256560;23;20026;-91
2023/10/03 01:09:34;;;;;;;25.15;12.20;;;;;;;15.94;100.00;100843.22;1249854;23;20026;-90
2023/10/03 01:10:07;;;;;;;34.97;13.02;;;;;;;15.98;100.00;100847.03;1249604;23;20027;-90
2023/10/03 01:10:40;;;;;;;30.42;12.02;;;;;;;15.92;100.00;100839.19;1255856;23;20019;-90
2023/10/03 01:11:16;;;;;;;35.00;11.98;;;;;;;15.98;100.00;100835.47;1256920;23;20022;-90
2023/10/03 01:11:51;;;;;;;32.20;13.88;;;;;;;15.95;100.00;100838.66;1255164;23;20022;-90
2023/10/03 01:12:24;;;;;;;27.73;12.38;;;;;;;15.94;100.00;100834.38;1254246;23;20023;-91
2023/10/03 01:12:56;;;;;;;26.17;11.40;;;;;;;15.91;100.00;100827.63;1256334;23;20018;-91
2023/10/03 01:13:29;;;;;;;30.10;12.60;;;;;;;16.01;100.00;100826.91;1250061;23;20473;-90
2023/10/03 01:14:01;;;;;;;24.98;11.38;;;;;;;15.89;100.00;100823.56;1261683;23;20022;-90
2023/10/03 01:14:34;;;;;;;24.70;12.75;;;;;;;15.86;100.00;100830.22;1260731;23;20431;-90
2023/10/03 01:15:13;;;;;;;30.63;13.40;;;;;;;15.88;100.00;100832.66;1250471;23;20384;-91
2023/10/03 01:15:50;;;;;;;28.00;13.23;;;;;;;15.89;100.00;100818.19;1260073;23;20096;-91
2023/10/03 01:16:31;;;;;;;27.65;11.70;;;;;;;15.79;100.00;100812.69;1268412;23;20022;-89
2023/10/03 01:17:06;;;;;;;28.83;13.38;;;;;;;15.88;100.00;100816.53;1268816;23;20050;-90
2023/10/03 01:17:37;;;;;;;24.98;13.25;;;;;;;15.89;100.00;100819.00;1259618;23;20463;-90
2023/10/03 01:18:13;;;;;;;33.55;13.52;;;;;;;16.00;100.00;100814.53;1254414;23;20022;-91
2023/10/03 01:18:45;;;;;;;32.58;13.77;;;;;;;15.95;100.00;100812.63;1252046;23;20563;-91
2023/10/03 01:19:20;;;;;;;27.73;12.98;;;;;;;16.02;100.00;100812.41;1252086;23;20015;-91
2023/10/03 01:19:52;;;;;;;24.73;12.63;;;;;;;15.99;100.00;100812.91;1256616;23;20019;-91
2023/10/03 01:20:24;;;;;;;25.55;12.23;;;;;;;16.00;100.00;100809.16;1261096;23;20317;-91
2023/10/03 01:21:00;;;;;;;31.60;13.38;;;;;;;15.88;100.00;100805.78;1254757;23;20452;-91
2023/10/03 01:21:32;;;;;;;24.55;11.55;;;;;;;15.80;100.00;100806.25;1250543;23;20023;-91
2023/10/03 01:22:04;;;;;;;25.92;12.45;;;;;;;15.77;100.00;100805.69;1255643;23;20025;-91
2023/10/03 01:22:39;;;;;;;27.27;12.85;;;;;;;15.85;100.00;100796.38;1255495;23;20030;-90
2023/10/03 01:23:15;;;;;;;24.73;12.18;;;;;;;15.92;100.00;100793.50;1260949;23;20025;-91
2023/10/03 01:23:47;;;;;;;33.97;12.65;;;;;;;15.91;100.00;100792.69;1255075;23;20030;-91
2023/10/03 01:24:24;;;;;;;28.38;12.02;;;;;;;15.87;100.00;100788.06;1255399;23;20015;-91
2023/10/03 01:24:59;;;;;;;30.02;14.38;;;;;;;15.85;100.00;100784.81;1257730;23;20019;-90
2023/10/03 01:25:34;;;;;;;31.48;12.57;;;;;;;15.88;100.00;100790.50;1254999;23;20025;-91
2023/10/03 01:26:09;;;;;;;33.40;14.52;;;;;;;15.85;100.00;100782.13;1255120;23;20019;-90
2023/10/03 01:26:41;;;;;;;29.88;13.35;;;;;;;15.84;100.00;100788.56;1258064;23;20093;-91
2023/10/03 01:27:12;;;;;;;39.60;13.38;;;;;;;15.82;100.00;100785.31;1255782;23;20094;-91
2023/10/03 01:27:45;;;;;;;24.95;12.20;;;;;;;15.81;100.00;100792.56;1255432;23;20023;-91
2023/10/03 01:28:16;;;;;;;36.63;12.52;;;;;;;15.88;100.00;100795.88;1253588;23;20022;-91
2023/10/03 01:28:48;;;;;;;33.15;14.32;;;;;;;15.86;100.00;100787.25;1256663;23;20019;-90
2023/10/03 01:29:21;;;;;;;30.88;12.82;;;;;;;15.81;100.00;100783.69;1264015;23;20034;-90
2023/10/03 01:29:53;;;;;;;27.83;13.35;;;;;;;15.81;100.00;100781.00;1256068;23;20018;-90
2023/10/03 01:30:26;;;;;;;33.20;13.32;;;;;;;15.81;100.00;100778.31;1243171;23;20026;-91
2023/10/03 01:30:58;;;;;;;29.55;13.15;;;;;;;15.77;100.00;100783.41;1260725;23;20022;-89
2023/10/03 01:31:29;;;;;;;34.95;13.02;;;;;;;15.83;100.00;100786.94;1267096;23;20018;-90
2023/10/03 01:32:01;;;;;;;23.10;12.43;;;;;;;15.74;100.00;100779.34;1263713;23;20014;-91
2023/10/03 01:32:36;;;;;;;30.17;12.73;;;;;;;15.85;100.00;100774.06;1258316;23;20047;-90
2023/10/03 01:33:09;;;;;;;27.58;12.52;;;;;;;15.91;100.00;100781.94;1255574;23;20078;-91
2023/10/03 01:33:41;;;;;;;30.60;11.98;;;;;;;15.85;100.00;100776.75;1256448;23;20019;-89
2023/10/03 01:34:12;;;;;;;30.88;13.48;;;;;;;15.92;100.00;100780.06;1258440;23;20026;-90
2023/10/03 01:34:44;;;;;;;28.15;13.15;;;;;;;15.87;100.00;100782.69;1258830;23;20017;-91
2023/10/03 01:35:15;;;;;;;33.67;13.55;;;;;;;15.83;100.00;100776.19;1250493;23;20077;-91
2023/10/03 01:35:47;;;;;;;26.23;12.30;;;;;;;15.84;100.00;100769.75;1250322;23;20070;-90
2023/10/03 01:36:19;;;;;;;31.40;13.57;;;;;;;15.77;100.00;100773.47;1258027;23;20046;-90
2023/10/03 01:36:52;;;;;;;28.88;12.70;;;;;;;15.71;100.00;100769.09;1249993;23;20023;-91
2023/10/03 01:37:24;;;;;;;33.85;13.40;;;;;;;15.81;100.00;100767.59;1261580;23;20022;-91
2023/10/03 01:37:56;;;;;;;25.25;13.63;;;;;;;15.89;100.00;100759.09;1249199;23;20043;-90
2023/10/03 01:38:29;;;;;;;29.48;12.77;;;;;;;15.71;100.00;100755.69;1248018;23;20348;-91
2023/10/03 01:39:02;;;;;;;33.22;14.88;;;;;;;15.75;100.00;100754.09;1261868;23;20018;-91
2023/10/03 01:39:34;;;;;;;30.27;13.20;;;;;;;15.82;100.00;100755.78;1262230;23;20033;-90
2023/10/03 01:40:13;;;;;;;27.77;14.80;;;;;;;15.82;100.00;100753.91;1256357;23;20023;-91
2023/10/03 01:40:49;;;;;;;29.15;12.30;;;;;;;15.85;100.00;100758.75;1243463;23;20020;-90
2023/10/03 01:41:21;;;;;;;31.02;14.07;;;;;;;15.86;100.00;100759.56;1248607;23;20015;-90
2023/10/03 01:41:53;;;;;;;26.88;12.25;;;;;;;15.82;100.00;100758.47;1255400;23;20022;-91
2023/10/03 01:42:25;;;;;;;29.75;14.25;;;;;;;15.81;100.00;100760.34;1249874;23;20027;-90
2023/10/03 01:42:57;;;;;;;27.48;13.25;;;;;;;15.82;100.00;100758.47;1249632;23;20026;-90
2023/10/03 01:43:29;;;;;;;26.35;12.52;;;;;;;15.81;100.00;100756.84;1253471;23;20023;-90
2023/10/03 01:44:01;;;;;;;33.58;13.68;;;;;;;15.85;100.00;100752.59;1248847;23;20027;-90
2023/10/03 01:44:32;;;;;;;21.35;10.95;;;;;;;15.55;100.00;100753.84;1251156;23;20012;-91
2023/10/03 01:45:05;;;;;;;26.95;11.52;;;;;;;15.72;100.00;100749.25;1253942;23;20026;-91
2023/10/03 01:45:37;;;;;;;28.98;13.98;;;;;;;15.71;100.00;100747.63;1260949;23;20025;-90
2023/10/03 01:46:17;;;;;;;33.63;13.60;;;;;;;15.74;100.00;100744.44;1252870;23;20014;-91
2023/10/03 01:46:50;;;;;;;34.80;13.98;;;;;;;15.80;100.00;100741.78;1249925;23;20035;-91
2023/10/03 01:47:21;;;;;;;30.95;13.40;;;;;;;15.81;100.00;100746.09;1255618;23;20026;-91
2023/10/03 01:47:58;;;;;;;28.70;13.00;;;;;;;15.87;100.00;100739.72;1254311;23;20105;-91
2023/10/03 01:48:33;;;;;;;32.83;13.02;;;;;;;15.74;100.00;100741.75;1260134;23;20018;-90
2023/10/03 01:49:05;;;;;;;27.30;11.13;;;;;;;15.81;100.00;100729.97;1248347;23;20508;-90
2023/10/03 01:49:38;;;;;;;28.73;12.13;;;;;;;15.67;100.00;100730.41;1254073;23;20018;-90
2023/10/03 01:50:11;;;;;;;26.58;12.52;;;;;;;15.72;100.00;100738.50;1259737;23;20465;-91
2023/10/03 01:50:44;;;;;;;29.95;13.20;;;;;;;15.73;100.00;100729.38;1268698;23;20022;-91
2023/10/03 01:51:16;;;;;;;33.05;12.10;;;;;;;15.76;100.00;100728.88;1261185;23;20042;-91
2023/10/03 01:51:47;;;;;;;31.52;11.90;;;;;;;15.75;100.00;100739.88;1249444;23;20488;-90
2023/10/03 01:52:19;;;;;;;26.70;11.82;;;;;;;15.76;100.00;100734.25;1249351;23;20016;-90
2023/10/03 01:52:52;;;;;;;30.48;13.15;;;;;;;15.69;100.00;100732.84;1255143;23;20015;-90
2023/10/03 01:53:25;;;;;;;37.72;13.20;;;;;;;15.70;100.00;100726.41;1254421;23;20019;-91
2023/10/03 01:53:57;;;;;;;27.88;13.27;;;;;;;15.71;100.00;100718.09;1247755;23;20035;-91
2023/10/03 01:54:28;;;;;;;26.98;12.18;;;;;;;15.70;100.00;100719.16;1254337;23;20026;-91
2023/10/03 01:55:00;;;;;;;30.75;13.23;;;;;;;15.69;100.00;100714.84;1249475;23;20030;-91
2023/10/03 01:55:33;;;;;;;28.50;13.85;;;;;;;15.71;100.00;100707.34;1248777;23;20026;-91
2023/10/03 01:56:06;;;;;;;27.83;13.85;;;;;;;15.74;100.00;100709.53;1248120;23;20114;-91
2023/10/03 01:56:38;;;;;;;24.35;12.25;;;;;;;15.70;100.00;100707.59;1253193;23;20026;-90
2023/10/03 01:57:09;;;;;;;28.63;13.45;;;;;;;15.66;100.00;100707.28;1248757;23;20164;-90
2023/10/03 01:57:42;;;;;;;26.73;13.10;;;;;;;15.67;100.00;100713.47;1255364;23;20025;-90
2023/10/03 01:58:13;;;;;;;23.30;11.50;;;;;;;15.73;100.00;100702.53;1254418;23;20019;-90
2023/10/03 01:58:45;;;;;;;32.17;12.95;;;;;;;15.75;100.00;100702.28;1254316;23;20015;-91
2023/10/03 01:59:17;;;;;;;26.73;12.48;;;;;;;15.86;100.00;100700.47;1247534;23;20023;-90
2023/10/03 01:59:50;;;;;;;28.48;12.55;;;;;;;15.81;100.00;100703.13;1261913;23;20014;-90
2023/10/03 02:00:25;;;;;;;29.25;13.63;;;;;;;15.83;100.00;100696.44;1260924;23;20022;-91
2023/10/03 02:00:57;;;;;;;29.00;13.02;;;;;;;15.88;100.00;100695.66;1248583;23;20356;-91
2023/10/03 02:01:29;;;;;;;28.25;12.73;;;;;;;15.93;100.00;100690.38;1259239;23;20089;-91
2023/10/03 02:02:01;;;;;;;32.88;14.13;;;;;;;15.83;100.00;100695.63;1255040;23;20188;-91
2023/10/03 02:02:33;;;;;;;31.98;14.10;;;;;;;15.86;100.00;100695.91;1256236;23;20021;-90
2023/10/03 02:03:05;;;;;;;26.42;13.43;;;;;;;15.92;100.00;100683.38;1254946;23;20074;-90
2023/10/03 02:03:39;;;;;;;30.25;13.00;;;;;;;15.84;100.00;100678.44;1260581;23;20039;-91
2023/10/03 02:04:12;;;;;;;29.13;12.43;;;;;;;15.87;100.00;100676.06;1253871;23;20019;-91
2023/10/03 02:04:45;;;;;;;31.15;13.05;;;;;;;15.85;100.00;100682.75;1257142;23;20034;-90
2023/10/03 02:05:21;;;;;;;27.05;11.70;;;;;;;15.93;100.00;100679.63;1260601;23;20036;-91
2023/10/03 02:05:53;;;;;;;24.63;11.73;;;;;;;15.94;100.00;100686.63;1253939;23;20022;-90
2023/10/03 02:06:26;;;;;;;28.17;13.13;;;;;;;15.87;100.00;100681.44;1254112;23;20015;-91
2023/10/03 02:06:58;;;;;;;27.85;12.95;;;;;;;15.92;100.00;100678.81;1250997;23;20460;-90
2023/10/03 02:07:30;;;;;;;30.52;13.27;;;;;;;15.85;100.00;100680.06;1248505;23;20015;-90
2023/10/03 02:08:16;;;;;;;27.50;12.85;;;;;;;15.90;100.00;100680.13;1250115;23;20019;-91
2023/10/03 02:08:48;;;;;;;31.70;13.00;;;;;;;15.77;100.00;100684.84;1261527;23;20018;-90
2023/10/03 02:09:21;;;;;;;31.17;13.07;;;;;;;15.80;100.00;100674.66;1256982;23;20015;-91
2023/10/03 02:09:53;;;;;;;30.42;12.25;;;;;;;15.83;100.00;100674.94;1253771;23;20208;-91
2023/10/03 02:10:26;;;;;;;25.60;12.23;;;;;;;15.82;100.00;100667.16;1256182;23;20011;-91
2023/10/03 02:10:57;;;;;;;27.48;13.02;;;;;;;15.81;100.00;100676.28;1257682;23;20014;-91
2023/10/03 02:11:29;;;;;;;30.40;12.52;;;;;;;15.73;100.00;100673.00;1254712;23;20018;-91
2023/10/03 02:12:01;;;;;;;27.08;12.18;;;;;;;15.75;100.00;100667.34;1247898;23;20015;-90
2023/10/03 02:12:33;;;;;;;27.63;12.23;;;;;;;15.80;100.00;100663.91;1259241;23;20026;-91
2023/10/03 02:13:11;;;;;;;26.55;12.60;;;;;;;15.74;100.00;100666.56;1255624;23;20507;-91
2023/10/03 02:13:45;;;;;;;34.28;13.45;;;;;;;15.75;100.00;100660.13;1254454;23;20364;-90
2023/10/03 02:14:19;;;;;;;25.98;12.48;;;;;;;15.85;100.00;100661.25;1247557;23;20016;-91
2023/10/03 02:14:50;;;;;;;41.25;14.38;;;;;;;15.85;100.00;100656.69;1246856;23;20543;-90
2023/10/03 02:15:26;;;;;;;25.30;12.30;;;;;;;15.79;100.00;100651.53;1254207;23;20534;-91
2023/10/03 02:15:58;;;;;;;28.85;13.90;;;;;;;15.82;100.00;100656.41;1249514;23;20472;-91
2023/10/03 02:16:34;;;;;;;31.65;13.27;;;;;;;15.77;100.00;100655.28;1254113;23;20055;-91
2023/10/03 02:17:06;;;;;;;30.25;12.73;;;;;;;15.82;100.00;100659.09;1267150;23;20021;-90
2023/10/03 02:17:38;;;;;;;32.35;13.57;;;;;;;15.83;100.00;100663.41;1250176;23;20158;-90
2023/10/03 02:18:12;;;;;;;34.10;12.30;;;;;;;15.83;100.00;100656.16;1261477;23;20018;-91
2023/10/03 02:18:44;;;;;;;25.15;13.88;;;;;;;15.84;100.00;100660.44;1263719;23;20348;-91
2023/10/03 02:19:17;;;;;;;28.58;12.27;;;;;;;15.92;100.00;100653.81;1256404;23;20018;-91
2023/10/03 02:19:48;;;;;;;30.77;12.23;;;;;;;15.82;100.00;100651.03;1249153;23;20067;-91
2023/10/03 02:20:25;;;;;;;29.42;13.30;;;;;;;15.80;100.00;100653.97;1253626;23;20036;-90
2023/10/03 02:21:03;;;;;;;29.48;13.60;;;;;;;15.84;100.00;100651.59;1256118;23;20066;-91
2023/10/03 02:21:35;;;;;;;24.80;11.93;;;;;;;15.83;100.00;100652.66;1259358;23;20015;-91
2023/10/03 02:22:06;;;;;;;34.25;13.43;;;;;;;15.85;100.00;100658.56;1255548;23;20019;-90
2023/10/03 02:22:38;;;;;;;30.95;13.00;;;;;;;15.87;100.00;100659.13;1258006;23;20014;-89
2023/10/03 02:23:10;;;;;;;27.88;14.93;;;;;;;15.93;100.00;100658.13;1249340;23;20015;-91
2023/10/03 02:23:42;;;;;;;29.95;11.65;;;;;;;15.85;100.00;100650.50;1257376;23;20015;-91
2023/10/03 02:24:14;;;;;;;24.35;12.27;;;;;;;15.87;100.00;100648.38;1259103;23;20113;-91
2023/10/03 02:24:47;;;;;;;26.17;12.98;;;;;;;15.89;100.00;100652.47;1258998;23;20018;-90
2023/10/03 02:25:22;;;;;;;30.83;14.00;;;;;;;15.89;100.00;100655.16;1254622;23;20073;-90
2023/10/03 02:26:18;;;;;;;30.60;13.68;;;;;;;15.88;100.00;100650.81;1254307;23;20109;-91
2023/10/03 02:26:49;;;;;;;39.90;13.38;;;;;;;15.77;100.00;100641.88;1254814;23;20050;-91
2023/10/03 02:27:25;;;;;;;26.33;12.65;;;;;;;15.77;100.00;100655.28;1255924;23;20027;-92
2023/10/03 02:27:59;;;;;;;28.08;11.63;;;;;;;15.83;100.00;100650.78;1248770;23;20743;-91
2023/10/03 02:28:31;;;;;;;34.85;14.43;;;;;;;15.88;100.00;100650.00;1251731;23;20148;-91
2023/10/03 02:29:05;;;;;;;30.08;12.15;;;;;;;15.91;100.00;100644.16;1257852;23;20022;-90
2023/10/03 02:29:38;;;;;;;31.48;11.88;;;;;;;15.89;100.00;100635.53;1258631;23;20015;-90
2023/10/03 02:30:12;;;;;;;28.20;14.57;;;;;;;15.94;100.00;100627.50;1259986;23;20018;-91